PWSweather.com
Personal Weather Stations
Station Observations
HELOTES
Helotes Park Terrace, Helotes, TX 78023

Helotes Park TerraceHelotes, TX 78023

Lat: 29.57, Lon: -98.68

Elevation: 1060

Station Type: Ambient Weather WS-1090

Latest ConditionsUpdated 11:46:06 PM CDT Saturday, Jul 23, 2016
Currently Today's Max Today's Min Today's Average
Temperature 85.1°F29.5°C 98.8°F37.1°C 79.6°F26.4°C 91.3°F32.9°C
Dew Point 71.1°F21.7°C 76.2°F24.6°C 68.1°F20.1°C 71.5°F21.9°C
Winds 2.9 mph E4.7 kmh E 5.4 mph ENE8.7 kmh ENE - 1.4 mph 2.3 kmh
Wind Gusts 4.5 mph7.2 kmh 6.3 mph10.1 kmh - -
Humidity 63% 75% 42% 53%
Pressure 29.87 in1011.5 mb 30.04 in1017.3 mb 29.78 in1008.5 mb -
Hour Temp Dew Point Humidity Winds Wind Gusts Pressure Precip Precip Rate Daily Precip Total
11:46 PM 85.1°F29.5°C 71.1°F21.7°C 63% 2.9 mph E4.7 kmh E 4.5 mph7.2 kmh 29.87 in1011.5 mb 0.00 in0.0 mm 0.00 in0.0 mm 0.00 in0.0 mm
11:41 PM 85.3°F29.6°C 71.3°F21.8°C 63% 2.0 mph E3.2 kmh E 4.3 mph6.9 kmh 29.86 in1011.2 mb 0.00 in0.0 mm 0.00 in0.0 mm 0.00 in0.0 mm
11:36 PM 85.5°F29.7°C 71.5°F21.9°C 63% 2.9 mph NE4.7 kmh NE 4.5 mph7.2 kmh 29.86 in1011.2 mb 0.00 in0.0 mm 0.00 in0.0 mm 0.00 in0.0 mm
11:31 PM 85.7°F29.8°C 71.2°F21.8°C 62% 1.8 mph NE2.9 kmh NE 4.5 mph7.2 kmh 29.86 in1011.2 mb 0.00 in0.0 mm 0.00 in0.0 mm 0.00 in0.0 mm
11:26 PM 85.9°F29.9°C 71.4°F21.9°C 62% 2.8 mph E4.5 kmh E 4.7 mph7.6 kmh 29.86 in1011.2 mb 0.00 in0.0 mm 0.00 in0.0 mm 0.00 in0.0 mm
11:21 PM 86.0°F30.0°C 71.5°F21.9°C 62% 3.0 mph E4.8 kmh E 4.7 mph7.6 kmh 29.85 in1010.8 mb 0.00 in0.0 mm 0.00 in0.0 mm 0.00 in0.0 mm
11:16 PM 86.2°F30.1°C 71.6°F22.0°C 62% 2.1 mph NE3.4 kmh NE 4.7 mph7.6 kmh 29.85 in1010.8 mb 0.00 in0.0 mm 0.00 in0.0 mm 0.00 in0.0 mm
11:11 PM 86.4°F30.2°C 71.4°F21.9°C 61% 2.4 mph NE3.9 kmh NE 6.0 mph9.7 kmh 29.85 in1010.8 mb 0.00 in0.0 mm 0.00 in0.0 mm 0.00 in0.0 mm
11:06 PM 86.6°F30.3°C 71.6°F22.0°C 61% 2.4 mph ENE3.9 kmh ENE 6.0 mph9.7 kmh 29.85 in1010.8 mb 0.00 in0.0 mm 0.00 in0.0 mm 0.00 in0.0 mm
11:01 PM 86.8°F30.4°C 71.3°F21.8°C 60% 2.4 mph ENE3.9 kmh ENE 4.7 mph7.6 kmh 29.85 in1010.8 mb 0.00 in0.0 mm 0.00 in0.0 mm 0.00 in0.0 mm
10:56 PM 86.9°F30.5°C 71.5°F21.9°C 60% 2.1 mph W3.4 kmh W 4.7 mph7.6 kmh 29.84 in1010.5 mb 0.00 in0.0 mm 0.00 in0.0 mm 0.00 in0.0 mm
10:51 PM 87.1°F30.6°C 71.1°F21.7°C 59% 1.5 mph NE2.4 kmh NE 3.1 mph5.0 kmh 29.84 in1010.5 mb 0.00 in0.0 mm 0.00 in0.0 mm 0.00 in0.0 mm
10:46 PM 87.5°F30.8°C 71.5°F21.9°C 59% 2.0 mph NE3.2 kmh NE 5.1 mph8.2 kmh 29.84 in1010.5 mb 0.00 in0.0 mm 0.00 in0.0 mm 0.00 in0.0 mm
10:41 PM 87.5°F30.8°C 71.5°F21.9°C 59% 2.8 mph E4.5 kmh E 5.1 mph8.2 kmh 29.83 in1010.2 mb 0.00 in0.0 mm 0.00 in0.0 mm 0.00 in0.0 mm
10:36 PM 87.8°F31.0°C 71.3°F21.8°C 58% 2.0 mph NE3.2 kmh NE 4.7 mph7.6 kmh 29.83 in1010.2 mb 0.00 in0.0 mm 0.00 in0.0 mm 0.00 in0.0 mm
10:31 PM 88.0°F31.1°C 71.5°F21.9°C 58% 1.8 mph NE2.9 kmh NE 4.7 mph7.6 kmh 29.82 in1009.8 mb 0.00 in0.0 mm 0.00 in0.0 mm 0.00 in0.0 mm
10:26 PM 88.2°F31.2°C 71.1°F21.7°C 57% 1.7 mph ENE2.7 kmh ENE 5.8 mph9.3 kmh 29.82 in1009.8 mb 0.00 in0.0 mm 0.00 in0.0 mm 0.00 in0.0 mm
10:21 PM 88.6°F31.4°C 71.4°F21.9°C 57% 3.5 mph E5.6 kmh E 5.8 mph9.3 kmh 29.82 in1009.8 mb 0.00 in0.0 mm 0.00 in0.0 mm 0.00 in0.0 mm
10:16 PM 88.7°F31.5°C 71.0°F21.7°C 56% 3.2 mph ENE5.1 kmh ENE 5.6 mph9.0 kmh 29.82 in1009.8 mb 0.00 in0.0 mm 0.00 in0.0 mm 0.00 in0.0 mm
10:11 PM 88.9°F31.6°C 71.2°F21.8°C 56% 3.2 mph ESE5.1 kmh ESE 6.3 mph10.1 kmh 29.82 in1009.8 mb 0.00 in0.0 mm 0.00 in0.0 mm 0.00 in0.0 mm
10:06 PM 89.1°F31.7°C 71.4°F21.9°C 56% 4.8 mph NE7.7 kmh NE 6.3 mph10.1 kmh 29.81 in1009.5 mb 0.00 in0.0 mm 0.00 in0.0 mm 0.00 in0.0 mm
10:01 PM 89.3°F31.8°C 71.5°F21.9°C 56% 4.3 mph E6.9 kmh E 4.9 mph7.9 kmh 29.81 in1009.5 mb 0.00 in0.0 mm 0.00 in0.0 mm 0.00 in0.0 mm
09:56 PM 89.3°F31.8°C 71.5°F21.9°C 56% 3.4 mph E5.5 kmh E 4.7 mph7.6 kmh 29.81 in1009.5 mb 0.00 in0.0 mm 0.00 in0.0 mm 0.00 in0.0 mm
09:51 PM 89.3°F31.8°C 71.5°F21.9°C 56% 4.3 mph N6.9 kmh N 4.7 mph7.6 kmh 29.80 in1009.1 mb 0.00 in0.0 mm 0.00 in0.0 mm 0.00 in0.0 mm
09:46 PM 89.1°F31.7°C 70.8°F21.6°C 55% 1.9 mph NE3.1 kmh NE 3.4 mph5.5 kmh 29.80 in1009.1 mb 0.00 in0.0 mm 0.00 in0.0 mm 0.00 in0.0 mm
09:41 PM 88.9°F31.6°C 70.7°F21.5°C 55% 2.0 mph E3.2 kmh E 3.4 mph5.5 kmh 29.79 in1008.8 mb 0.00 in0.0 mm 0.00 in0.0 mm 0.00 in0.0 mm
09:36 PM 88.7°F31.5°C 69.9°F21.1°C 54% 1.9 mph NNE3.1 kmh NNE 4.0 mph6.4 kmh 29.79 in1008.8 mb 0.00 in0.0 mm 0.00 in0.0 mm 0.00 in0.0 mm
09:30 PM 88.6°F31.4°C 69.2°F20.7°C 53% 1.9 mph 3.1 kmh 4.0 mph6.4 kmh 29.79 in1008.8 mb 0.00 in0.0 mm 0.00 in0.0 mm 0.00 in0.0 mm
09:25 PM 88.7°F31.5°C 69.4°F20.8°C 53% 1.5 mph NE2.4 kmh NE 2.0 mph3.2 kmh 29.79 in1008.8 mb 0.00 in0.0 mm 0.00 in0.0 mm 0.00 in0.0 mm
09:20 PM 89.1°F31.7°C 69.2°F20.7°C 52% 0.4 mph ENE0.6 kmh ENE 0.4 mph0.6 kmh 29.79 in1008.8 mb 0.00 in0.0 mm 0.00 in0.0 mm 0.00 in0.0 mm
09:15 PM 89.5°F31.9°C 69.5°F20.8°C 52% Calm Calm 1.1 mph1.8 kmh 29.79 in1008.8 mb 0.00 in0.0 mm 0.00 in0.0 mm 0.00 in0.0 mm
09:10 PM 89.8°F32.1°C 69.9°F21.1°C 52% Calm Calm 1.1 mph1.8 kmh 29.79 in1008.8 mb 0.00 in0.0 mm 0.00 in0.0 mm 0.00 in0.0 mm
09:05 PM 90.2°F32.3°C 69.6°F20.9°C 51% Calm Calm 0.4 mph0.6 kmh 29.79 in1008.8 mb 0.00 in0.0 mm 0.00 in0.0 mm 0.00 in0.0 mm
09:00 PM 90.4°F32.4°C 69.2°F20.7°C 50% 0.4 mph NE0.6 kmh NE 0.4 mph0.6 kmh 29.79 in1008.8 mb 0.00 in0.0 mm 0.00 in0.0 mm 0.00 in0.0 mm
08:55 PM 90.7°F32.6°C 69.6°F20.9°C 50% 0.3 mph NNE0.5 kmh NNE 1.1 mph1.8 kmh 29.78 in1008.5 mb 0.00 in0.0 mm 0.00 in0.0 mm 0.00 in0.0 mm
08:50 PM 90.9°F32.7°C 69.8°F21.0°C 50% 0.3 mph E0.5 kmh E 1.3 mph2.1 kmh 29.79 in1008.8 mb 0.00 in0.0 mm 0.00 in0.0 mm 0.00 in0.0 mm
08:45 PM 91.1°F32.8°C 69.2°F20.7°C 49% 0.7 mph NE1.1 kmh NE 2.5 mph4.0 kmh 29.79 in1008.8 mb 0.00 in0.0 mm 0.00 in0.0 mm 0.00 in0.0 mm
08:40 PM 91.4°F33.0°C 69.6°F20.9°C 49% 1.3 mph E2.1 kmh E 2.5 mph4.0 kmh 29.78 in1008.5 mb 0.00 in0.0 mm 0.00 in0.0 mm 0.00 in0.0 mm
08:35 PM 91.6°F33.1°C 69.0°F20.6°C 48% 0.9 mph E1.4 kmh E 2.2 mph3.5 kmh 29.78 in1008.5 mb 0.00 in0.0 mm 0.00 in0.0 mm 0.00 in0.0 mm
08:30 PM 91.8°F33.2°C 69.2°F20.7°C 48% 0.7 mph NE1.1 kmh NE 1.1 mph1.8 kmh 29.78 in1008.5 mb 0.00 in0.0 mm 0.00 in0.0 mm 0.00 in0.0 mm
08:25 PM 92.2°F33.4°C 69.6°F20.9°C 48% 1.1 mph ENE1.8 kmh ENE 1.8 mph2.9 kmh 29.78 in1008.5 mb 0.00 in0.0 mm 0.00 in0.0 mm 0.00 in0.0 mm
08:20 PM 92.3°F33.5°C 69.8°F21.0°C 48% 0.2 mph ENE0.3 kmh ENE 2.5 mph4.0 kmh 29.78 in1008.5 mb 0.00 in0.0 mm 0.00 in0.0 mm 0.00 in0.0 mm
08:15 PM 92.5°F33.6°C 69.2°F20.7°C 47% 1.1 mph NE1.8 kmh NE 2.5 mph4.0 kmh 29.78 in1008.5 mb 0.00 in0.0 mm 0.00 in0.0 mm 0.00 in0.0 mm
08:10 PM 92.9°F33.8°C 69.6°F20.9°C 47% 1.4 mph N2.3 kmh N 2.2 mph3.5 kmh 29.78 in1008.5 mb 0.00 in0.0 mm 0.00 in0.0 mm 0.00 in0.0 mm
08:05 PM 93.2°F34.0°C 69.2°F20.7°C 46% 1.4 mph NE2.3 kmh NE 3.4 mph5.5 kmh 29.78 in1008.5 mb 0.00 in0.0 mm 0.00 in0.0 mm 0.00 in0.0 mm
08:00 PM 93.4°F34.1°C 69.4°F20.8°C 46% 1.0 mph N1.6 kmh N 3.4 mph5.5 kmh 29.78 in1008.5 mb 0.00 in0.0 mm 0.00 in0.0 mm 0.00 in0.0 mm
07:55 PM 93.6°F34.2°C 69.6°F20.9°C 46% 1.8 mph NE2.9 kmh NE 3.4 mph5.5 kmh 29.79 in1008.8 mb 0.00 in0.0 mm 0.00 in0.0 mm 0.00 in0.0 mm
07:50 PM 93.8°F34.3°C 69.8°F21.0°C 46% 1.5 mph NNE2.4 kmh NNE 3.8 mph6.1 kmh 29.78 in1008.5 mb 0.00 in0.0 mm 0.00 in0.0 mm 0.00 in0.0 mm
07:45 PM 94.1°F34.5°C 70.1°F21.2°C 46% 1.5 mph NNE2.4 kmh NNE 3.8 mph6.1 kmh 29.78 in1008.5 mb 0.00 in0.0 mm 0.00 in0.0 mm 0.00 in0.0 mm
07:40 PM 94.3°F34.6°C 69.6°F20.9°C 45% 2.9 mph NNE4.7 kmh NNE 3.8 mph6.1 kmh 29.78 in1008.5 mb 0.00 in0.0 mm 0.00 in0.0 mm 0.00 in0.0 mm
07:35 PM 94.5°F34.7°C 69.8°F21.0°C 45% 1.0 mph SE1.6 kmh SE 2.9 mph4.7 kmh 29.78 in1008.5 mb 0.00 in0.0 mm 0.00 in0.0 mm 0.00 in0.0 mm
07:30 PM 94.7°F34.8°C 69.9°F21.1°C 45% 1.6 mph E2.6 kmh E 3.6 mph5.8 kmh 29.78 in1008.5 mb 0.00 in0.0 mm 0.00 in0.0 mm 0.00 in0.0 mm
07:25 PM 94.9°F34.9°C 69.5°F20.8°C 44% 1.4 mph ENE2.3 kmh ENE 4.7 mph7.6 kmh 29.78 in1008.5 mb 0.00 in0.0 mm 0.00 in0.0 mm 0.00 in0.0 mm
07:20 PM 95.0°F35.0°C 69.7°F20.9°C 44% 0.8 mph E1.3 kmh E 4.7 mph7.6 kmh 29.78 in1008.5 mb 0.00 in0.0 mm 0.00 in0.0 mm 0.00 in0.0 mm
07:15 PM 95.4°F35.2°C 70.7°F21.5°C 45% 2.1 mph NNW3.4 kmh NNW 4.5 mph7.2 kmh 29.78 in1008.5 mb 0.00 in0.0 mm 0.00 in0.0 mm 0.00 in0.0 mm
07:10 PM 95.6°F35.3°C 70.1°F21.2°C 44% 2.5 mph ENE4.0 kmh ENE 4.5 mph7.2 kmh 29.78 in1008.5 mb 0.00 in0.0 mm 0.00 in0.0 mm 0.00 in0.0 mm
07:05 PM 95.9°F35.5°C 70.5°F21.4°C 44% 2.4 mph E3.9 kmh E 4.0 mph6.4 kmh 29.78 in1008.5 mb 0.00 in0.0 mm 0.00 in0.0 mm 0.00 in0.0 mm
07:00 PM 96.3°F35.7°C 70.7°F21.5°C 44% 1.5 mph N2.4 kmh N 4.0 mph6.4 kmh 29.79 in1008.8 mb 0.00 in0.0 mm 0.00 in0.0 mm 0.00 in0.0 mm
06:55 PM 96.5°F35.8°C 70.9°F21.6°C 44% 1.4 mph E2.3 kmh E 3.1 mph5.0 kmh 29.78 in1008.5 mb 0.00 in0.0 mm 0.00 in0.0 mm 0.00 in0.0 mm
06:50 PM 96.7°F35.9°C 70.4°F21.3°C 43% 1.1 mph E1.8 kmh E 3.4 mph5.5 kmh 29.79 in1008.8 mb 0.00 in0.0 mm 0.00 in0.0 mm 0.00 in0.0 mm
06:45 PM 97.0°F36.1°C 70.7°F21.5°C 43% 2.4 mph E3.9 kmh E 5.4 mph8.7 kmh 29.79 in1008.8 mb 0.00 in0.0 mm 0.00 in0.0 mm 0.00 in0.0 mm
06:40 PM 97.4°F36.3°C 71.1°F21.7°C 43% 1.4 mph ESE2.3 kmh ESE 5.4 mph8.7 kmh 29.79 in1008.8 mb 0.00 in0.0 mm 0.00 in0.0 mm 0.00 in0.0 mm
06:35 PM 97.7°F36.5°C 71.4°F21.9°C 43% 1.9 mph NE3.1 kmh NE 4.0 mph6.4 kmh 29.79 in1008.8 mb 0.00 in0.0 mm 0.00 in0.0 mm 0.00 in0.0 mm
06:30 PM 97.9°F36.6°C 71.6°F22.0°C 43% 1.5 mph ENE2.4 kmh ENE 3.4 mph5.5 kmh 29.79 in1008.8 mb 0.00 in0.0 mm 0.00 in0.0 mm 0.00 in0.0 mm
06:25 PM 97.9°F36.6°C 71.6°F22.0°C 43% 1.4 mph ENE2.3 kmh ENE 3.1 mph5.0 kmh 29.79 in1008.8 mb 0.00 in0.0 mm 0.00 in0.0 mm 0.00 in0.0 mm
06:20 PM 98.1°F36.7°C 71.7°F22.1°C 43% 1.8 mph NNE2.9 kmh NNE 4.0 mph6.4 kmh 29.79 in1008.8 mb 0.00 in0.0 mm 0.00 in0.0 mm 0.00 in0.0 mm
06:15 PM 97.9°F36.6°C 71.6°F22.0°C 43% 2.0 mph ENE3.2 kmh ENE 4.0 mph6.4 kmh 29.79 in1008.8 mb 0.00 in0.0 mm 0.00 in0.0 mm 0.00 in0.0 mm
06:10 PM 98.1°F36.7°C 71.7°F22.1°C 43% 0.9 mph E1.4 kmh E 4.0 mph6.4 kmh 29.79 in1008.8 mb 0.00 in0.0 mm 0.00 in0.0 mm 0.00 in0.0 mm
06:05 PM 98.3°F36.8°C 71.9°F22.2°C 43% 1.4 mph ENE2.3 kmh ENE 4.0 mph6.4 kmh 29.79 in1008.8 mb 0.00 in0.0 mm 0.00 in0.0 mm 0.00 in0.0 mm
06:00 PM 98.1°F36.7°C 71.0°F21.7°C 42% 2.3 mph NE3.7 kmh NE 4.0 mph6.4 kmh 29.80 in1009.1 mb 0.00 in0.0 mm 0.00 in0.0 mm 0.00 in0.0 mm
05:55 PM 98.1°F36.7°C 71.7°F22.1°C 43% 2.4 mph NE3.9 kmh NE 4.0 mph6.4 kmh 29.80 in1009.1 mb 0.00 in0.0 mm 0.00 in0.0 mm 0.00 in0.0 mm
05:50 PM 98.3°F36.8°C 71.9°F22.2°C 43% 3.1 mph SE5.0 kmh SE 3.6 mph5.8 kmh 29.80 in1009.1 mb 0.00 in0.0 mm 0.00 in0.0 mm 0.00 in0.0 mm
05:45 PM 98.3°F36.8°C 71.9°F22.2°C 43% 1.4 mph ENE2.3 kmh ENE 2.9 mph4.7 kmh 29.80 in1009.1 mb 0.00 in0.0 mm 0.00 in0.0 mm 0.00 in0.0 mm
05:40 PM 98.1°F36.7°C 71.7°F22.1°C 43% 2.1 mph ESE3.4 kmh ESE 3.1 mph5.0 kmh 29.80 in1009.1 mb 0.00 in0.0 mm 0.00 in0.0 mm 0.00 in0.0 mm
05:35 PM 98.1°F36.7°C 71.7°F22.1°C 43% 1.3 mph ESE2.1 kmh ESE 4.5 mph7.2 kmh 29.81 in1009.5 mb 0.00 in0.0 mm 0.00 in0.0 mm 0.00 in0.0 mm
05:30 PM 98.3°F36.8°C 71.9°F22.2°C 43% 1.8 mph E2.9 kmh E 4.5 mph7.2 kmh 29.81 in1009.5 mb 0.00 in0.0 mm 0.00 in0.0 mm 0.00 in0.0 mm
05:25 PM 98.1°F36.7°C 71.7°F22.1°C 43% 2.5 mph ENE4.0 kmh ENE 3.6 mph5.8 kmh 29.82 in1009.8 mb 0.00 in0.0 mm 0.00 in0.0 mm 0.00 in0.0 mm
05:20 PM 98.1°F36.7°C 71.7°F22.1°C 43% 1.6 mph NNE2.6 kmh NNE 3.1 mph5.0 kmh 29.82 in1009.8 mb 0.00 in0.0 mm 0.00 in0.0 mm 0.00 in0.0 mm
05:15 PM 97.9°F36.6°C 71.6°F22.0°C 43% 1.5 mph NNW2.4 kmh NNW 3.8 mph6.1 kmh 29.82 in1009.8 mb 0.00 in0.0 mm 0.00 in0.0 mm 0.00 in0.0 mm
05:10 PM 97.9°F36.6°C 71.6°F22.0°C 43% 1.0 mph NNE1.6 kmh NNE 3.8 mph6.1 kmh 29.82 in1009.8 mb 0.00 in0.0 mm 0.00 in0.0 mm 0.00 in0.0 mm
05:05 PM 97.9°F36.6°C 71.6°F22.0°C 43% 1.5 mph ESE2.4 kmh ESE 3.4 mph5.5 kmh 29.82 in1009.8 mb 0.00 in0.0 mm 0.00 in0.0 mm 0.00 in0.0 mm
05:00 PM 97.9°F36.6°C 71.6°F22.0°C 43% 2.1 mph SE3.4 kmh SE 4.5 mph7.2 kmh 29.82 in1009.8 mb 0.00 in0.0 mm 0.00 in0.0 mm 0.00 in0.0 mm
04:55 PM 97.7°F36.5°C 72.1°F22.3°C 44% 2.6 mph NNE4.2 kmh NNE 4.5 mph7.2 kmh 29.82 in1009.8 mb 0.00 in0.0 mm 0.00 in0.0 mm 0.00 in0.0 mm
04:50 PM 97.6°F36.4°C 71.9°F22.2°C 44% 3.3 mph E5.3 kmh E 4.5 mph7.2 kmh 29.83 in1010.2 mb 0.00 in0.0 mm 0.00 in0.0 mm 0.00 in0.0 mm
04:45 PM 97.6°F36.4°C 72.5°F22.5°C 45% 2.0 mph SE3.2 kmh SE 3.1 mph5.0 kmh 29.83 in1010.2 mb 0.00 in0.0 mm 0.00 in0.0 mm 0.00 in0.0 mm
04:40 PM 97.4°F36.3°C 72.4°F22.4°C 45% 1.7 mph NE2.7 kmh NE 3.4 mph5.5 kmh 29.83 in1010.2 mb 0.00 in0.0 mm 0.00 in0.0 mm 0.00 in0.0 mm
04:35 PM 97.6°F36.4°C 72.5°F22.5°C 45% 1.2 mph NNE1.9 kmh NNE 3.6 mph5.8 kmh 29.83 in1010.2 mb 0.00 in0.0 mm 0.00 in0.0 mm 0.00 in0.0 mm
04:30 PM 97.4°F36.3°C 72.4°F22.4°C 45% 2.4 mph ENE3.9 kmh ENE 4.0 mph6.4 kmh 29.83 in1010.2 mb 0.00 in0.0 mm 0.00 in0.0 mm 0.00 in0.0 mm
04:25 PM 97.4°F36.3°C 73.1°F22.8°C 46% 3.1 mph NE5.0 kmh NE 4.0 mph6.4 kmh 29.83 in1010.2 mb 0.00 in0.0 mm 0.00 in0.0 mm 0.00 in0.0 mm
04:20 PM 97.4°F36.3°C 73.1°F22.8°C 46% 2.4 mph N3.9 kmh N 3.6 mph5.8 kmh 29.83 in1010.2 mb 0.00 in0.0 mm 0.00 in0.0 mm 0.00 in0.0 mm
04:15 PM 97.2°F36.2°C 72.9°F22.7°C 46% 2.8 mph NE4.5 kmh NE 3.6 mph5.8 kmh 29.84 in1010.5 mb 0.00 in0.0 mm 0.00 in0.0 mm 0.00 in0.0 mm
04:10 PM 97.2°F36.2°C 72.9°F22.7°C 46% 1.2 mph ENE1.9 kmh ENE 3.1 mph5.0 kmh 29.84 in1010.5 mb 0.00 in0.0 mm 0.00 in0.0 mm 0.00 in0.0 mm
04:05 PM 97.2°F36.2°C 72.9°F22.7°C 46% 1.5 mph E2.4 kmh E 2.7 mph4.3 kmh 29.84 in1010.5 mb 0.00 in0.0 mm 0.00 in0.0 mm 0.00 in0.0 mm
04:00 PM 97.0°F36.1°C 72.7°F22.6°C 46% 2.1 mph E3.4 kmh E 3.1 mph5.0 kmh 29.84 in1010.5 mb 0.00 in0.0 mm 0.00 in0.0 mm 0.00 in0.0 mm
03:55 PM 96.8°F36.0°C 73.3°F22.9°C 47% 1.3 mph E2.1 kmh E 4.0 mph6.4 kmh 29.85 in1010.8 mb 0.00 in0.0 mm 0.00 in0.0 mm 0.00 in0.0 mm
03:50 PM 96.7°F35.9°C 72.5°F22.5°C 46% 2.7 mph E4.3 kmh E 4.3 mph6.9 kmh 29.85 in1010.8 mb 0.00 in0.0 mm 0.00 in0.0 mm 0.00 in0.0 mm
03:45 PM 96.8°F36.0°C 72.5°F22.5°C 46% 3.4 mph N5.5 kmh N 4.3 mph6.9 kmh 29.85 in1010.8 mb 0.00 in0.0 mm 0.00 in0.0 mm 0.00 in0.0 mm
03:40 PM 96.8°F36.0°C 72.5°F22.5°C 46% 2.2 mph S3.5 kmh S 4.3 mph6.9 kmh 29.85 in1010.8 mb 0.00 in0.0 mm 0.00 in0.0 mm 0.00 in0.0 mm
03:35 PM 96.7°F35.9°C 73.1°F22.8°C 47% 2.7 mph NE4.3 kmh NE 4.3 mph6.9 kmh 29.85 in1010.8 mb 0.00 in0.0 mm 0.00 in0.0 mm 0.00 in0.0 mm
03:30 PM 96.7°F35.9°C 73.1°F22.8°C 47% 2.6 mph NE4.2 kmh NE 5.4 mph8.7 kmh 29.86 in1011.2 mb 0.00 in0.0 mm 0.00 in0.0 mm 0.00 in0.0 mm
03:25 PM 96.7°F35.9°C 72.5°F22.5°C 46% 2.6 mph ESE4.2 kmh ESE 5.4 mph8.7 kmh 29.86 in1011.2 mb 0.00 in0.0 mm 0.00 in0.0 mm 0.00 in0.0 mm
03:20 PM 96.7°F35.9°C 73.1°F22.8°C 47% 1.4 mph E2.3 kmh E 4.0 mph6.4 kmh 29.86 in1011.2 mb 0.00 in0.0 mm 0.00 in0.0 mm 0.00 in0.0 mm
03:15 PM 96.7°F35.9°C 73.7°F23.2°C 48% 2.7 mph N4.3 kmh N 4.0 mph6.4 kmh 29.86 in1011.2 mb 0.00 in0.0 mm 0.00 in0.0 mm 0.00 in0.0 mm
03:10 PM 96.1°F35.6°C 73.3°F22.9°C 48% 2.6 mph E4.2 kmh E 3.6 mph5.8 kmh 29.86 in1011.2 mb 0.00 in0.0 mm 0.00 in0.0 mm 0.00 in0.0 mm
03:05 PM 96.1°F35.6°C 73.3°F22.9°C 48% 2.4 mph NNE3.9 kmh NNE 3.4 mph5.5 kmh 29.87 in1011.5 mb 0.00 in0.0 mm 0.00 in0.0 mm 0.00 in0.0 mm
03:01 PM 79.7°F26.5°C 70.8°F21.6°C 74% Calm Calm 1.6 mph2.6 kmh 29.92 in1013.2 mb 0.00 in0.0 mm 0.00 in0.0 mm 0.00 in0.0 mm
03:00 PM 80.3°F26.8°C 70.5°F21.4°C 72% Calm Calm 2.5 mph4.0 kmh 29.93 in1013.5 mb 0.00 in0.0 mm 0.00 in0.0 mm 0.00 in0.0 mm
02:59 PM 81.4°F27.4°C 70.2°F21.2°C 69% 0.3 mph ENE0.5 kmh ENE 1.8 mph2.9 kmh 29.94 in1013.9 mb 0.00 in0.0 mm 0.00 in0.0 mm 0.00 in0.0 mm
02:58 PM 82.4°F28.0°C 69.8°F21.0°C 66% 1.6 mph NNE2.6 kmh NNE 3.4 mph5.5 kmh 29.94 in1013.9 mb 0.00 in0.0 mm 0.00 in0.0 mm 0.00 in0.0 mm
02:57 PM 83.5°F28.6°C 70.0°F21.1°C 64% 0.6 mph E1.0 kmh E 2.0 mph3.2 kmh 29.94 in1013.9 mb 0.00 in0.0 mm 0.00 in0.0 mm 0.00 in0.0 mm
02:56 PM 85.1°F29.5°C 71.1°F21.7°C 63% 2.3 mph E3.7 kmh E 3.8 mph6.1 kmh 29.93 in1013.5 mb 0.00 in0.0 mm 0.00 in0.0 mm 0.00 in0.0 mm
02:55 PM 86.6°F30.3°C 71.6°F22.0°C 61% 1.9 mph SE3.1 kmh SE 4.9 mph7.9 kmh 29.92 in1013.2 mb 0.00 in0.0 mm 0.00 in0.0 mm 0.00 in0.0 mm
02:54 PM 86.2°F30.1°C 68.1°F20.1°C 55% Calm Calm -- 29.89 in1012.2 mb 0.00 in0.0 mm 0.00 in0.0 mm 0.00 in0.0 mm
02:53 PM 89.1°F31.7°C 68.7°F20.4°C 51% Calm Calm -- 29.89 in1012.2 mb 0.00 in0.0 mm 0.00 in0.0 mm 0.00 in0.0 mm
02:52 PM 90.9°F32.7°C 69.0°F20.6°C 49% 0.3 mph N0.5 kmh N 2.5 mph4.0 kmh 29.88 in1011.9 mb 0.00 in0.0 mm 0.00 in0.0 mm 0.00 in0.0 mm
02:51 PM 92.9°F33.8°C 69.0°F20.6°C 46% 1.6 mph ENE2.6 kmh ENE 2.5 mph4.0 kmh 29.88 in1011.9 mb 0.00 in0.0 mm 0.00 in0.0 mm 0.00 in0.0 mm
02:50 PM 98.1°F36.7°C 71.7°F22.1°C 43% 1.6 mph ENE2.6 kmh ENE 4.5 mph7.2 kmh 29.89 in1012.2 mb 0.00 in0.0 mm 0.00 in0.0 mm 0.00 in0.0 mm
02:49 PM 98.6°F37.0°C 72.2°F22.3°C 43% Calm Calm 4.3 mph6.9 kmh 29.91 in1012.9 mb 0.00 in0.0 mm 0.00 in0.0 mm 0.00 in0.0 mm
02:48 PM 98.1°F36.7°C 71.7°F22.1°C 43% 1.1 mph NE1.8 kmh NE 2.5 mph4.0 kmh 29.93 in1013.5 mb 0.00 in0.0 mm 0.00 in0.0 mm 0.00 in0.0 mm
02:47 PM 97.4°F36.3°C 72.4°F22.4°C 45% 2.2 mph NE3.5 kmh NE 3.6 mph5.8 kmh 29.95 in1014.2 mb 0.00 in0.0 mm 0.00 in0.0 mm 0.00 in0.0 mm
02:46 PM 96.1°F35.6°C 73.3°F22.9°C 48% Calm Calm -- 29.98 in1015.2 mb 0.00 in0.0 mm 0.00 in0.0 mm 0.00 in0.0 mm
02:45 PM 94.5°F34.7°C 73.6°F23.1°C 51% Calm Calm -- 30.00 in1015.9 mb 0.00 in0.0 mm 0.00 in0.0 mm 0.00 in0.0 mm
02:44 PM 93.1°F33.9°C 75.0°F23.9°C 56% Calm Calm 5.4 mph8.7 kmh 30.02 in1016.6 mb 0.00 in0.0 mm 0.00 in0.0 mm 0.00 in0.0 mm
02:43 PM 88.9°F31.6°C 74.7°F23.7°C 63% 2.2 mph SW3.5 kmh SW 2.2 mph3.5 kmh 30.03 in1016.9 mb 0.00 in0.0 mm 0.00 in0.0 mm 0.00 in0.0 mm
02:42 PM 86.8°F30.4°C 75.0°F23.9°C 68% 2.7 mph E4.3 kmh E 2.7 mph4.3 kmh 30.04 in1017.3 mb 0.00 in0.0 mm 0.00 in0.0 mm 0.00 in0.0 mm
02:41 PM 85.9°F29.9°C 75.1°F23.9°C 70% 2.7 mph ESE4.3 kmh ESE 2.7 mph4.3 kmh 30.03 in1016.9 mb 0.00 in0.0 mm 0.00 in0.0 mm 0.00 in0.0 mm
02:40 PM 95.8°F35.4°C 73.6°F23.1°C 49% 0.7 mph NW1.1 kmh NW 0.7 mph1.1 kmh 29.87 in1011.5 mb 0.00 in0.0 mm 0.00 in0.0 mm 0.00 in0.0 mm